Time;durP1;ratioP1;P1;durP2;ratioP2;P2;SDS_P1;SDS_P2;PMS_P1;PMS_P2;Temp;Humidity;BMP_temperature;BMP_pressure;BME280_temperature;BME280_humidity;BME280_pressure;Samples;Min_cycle;Max_cycle;Signal;HPM_P1;HPM_P2
2021/09/28 00:01:19;;;;;;;17.23;15.07;;;;;;;18.73;94.42;95055.88;5133935;27;20783;-80
2021/09/28 00:03:46;;;;;;;17.60;15.80;;;;;;;18.73;94.58;95063.84;5133930;27;20454;-79
2021/09/28 00:06:14;;;;;;;17.73;15.90;;;;;;;18.77;94.29;95062.47;5133990;27;20440;-80
2021/09/28 00:08:42;;;;;;;18.87;16.97;;;;;;;18.72;94.39;95059.53;5133957;27;20443;-79
2021/09/28 00:11:10;;;;;;;19.33;16.70;;;;;;;18.71;94.35;95064.03;5133791;27;20809;-80
2021/09/28 00:13:37;;;;;;;18.27;16.40;;;;;;;18.71;94.64;95063.19;5133601;27;20527;-80
2021/09/28 00:16:04;;;;;;;19.80;16.80;;;;;;;18.70;94.88;95058.88;5133867;27;20459;-80
2021/09/28 00:18:31;;;;;;;26.07;16.13;;;;;;;18.70;94.89;95053.56;5133681;27;20438;-79
2021/09/28 00:20:58;;;;;;;18.60;16.13;;;;;;;18.70;94.50;95051.72;5133457;27;20444;-80
2021/09/28 00:23:27;;;;;;;18.47;16.57;;;;;;;18.70;94.17;95051.72;5114506;27;20952;-79
2021/09/28 00:25:54;;;;;;;18.80;16.97;;;;;;;18.69;93.97;95043.94;5133587;27;20807;-79
2021/09/28 00:28:24;;;;;;;26.60;17.07;;;;;;;18.72;94.23;95048.91;5133473;27;20442;-79
2021/09/28 00:30:51;;;;;;;19.70;17.67;;;;;;;18.74;93.79;95050.38;5133689;27;20449;-79
2021/09/28 00:33:18;;;;;;;18.97;16.80;;;;;;;18.81;93.79;95056.66;5132262;27;20493;-80
2021/09/28 00:35:45;;;;;;;27.50;16.63;;;;;;;18.86;93.61;95061.44;5133569;27;20447;-80
2021/09/28 00:38:12;;;;;;;20.80;16.90;;;;;;;18.92;93.33;95060.72;5133381;27;20444;-80
2021/09/28 00:40:40;;;;;;;17.87;15.87;;;;;;;18.97;93.08;95063.69;5133310;27;20801;-79
2021/09/28 00:43:07;;;;;;;18.27;16.47;;;;;;;19.03;92.70;95067.47;5113983;27;20434;-80
2021/09/28 00:45:34;;;;;;;18.93;16.50;;;;;;;19.01;92.27;95053.50;5133167;27;20438;-79
2021/09/28 00:48:01;;;;;;;21.83;17.57;;;;;;;19.07;92.27;95064.25;5113941;27;20441;-80
2021/09/28 00:50:28;;;;;;;19.80;16.50;;;;;;;19.10;91.98;95052.47;5133481;27;20519;-80
2021/09/28 00:52:55;;;;;;;19.00;17.00;;;;;;;19.13;91.93;95058.25;5133417;27;20513;-80
2021/09/28 00:55:27;;;;;;;18.40;16.47;;;;;;;19.16;91.53;95051.75;5113835;28;20454;-80
2021/09/28 00:57:57;;;;;;;18.90;14.70;;;;;;;19.17;91.44;95053.41;5132951;28;20451;-80
2021/09/28 01:00:24;;;;;;;14.73;11.83;;;;;;;19.11;90.88;95057.59;5113720;28;20449;-79
2021/09/28 01:02:53;;;;;;;17.43;12.57;;;;;;;18.99;90.71;95050.22;5133291;28;20446;-80
2021/09/28 01:05:20;;;;;;;13.93;12.60;;;;;;;18.94;90.95;95044.59;5133270;27;20435;-80
2021/09/28 01:07:47;;;;;;;15.20;13.80;;;;;;;18.84;91.85;95045.66;5132842;28;20444;-80
2021/09/28 01:10:14;;;;;;;22.03;13.87;;;;;;;18.79;92.39;95049.84;5133209;28;20440;-80
2021/09/28 01:12:41;;;;;;;14.00;12.60;;;;;;;18.70;92.84;95051.72;5132960;27;20971;-80
2021/09/28 01:15:10;;;;;;;15.67;14.17;;;;;;;18.74;93.06;95046.88;5132981;27;20475;-80
2021/09/28 01:17:37;;;;;;;19.43;14.97;;;;;;;18.49;94.29;95048.81;5132911;28;20448;-80
2021/09/28 01:20:05;;;;;;;19.80;15.47;;;;;;;18.58;93.80;95047.78;5096351;28;20431;-79
2021/09/28 01:22:33;;;;;;;19.27;14.97;;;;;;;18.57;93.72;95044.31;5132769;28;20521;-80
2021/09/28 01:25:00;;;;;;;17.13;15.37;;;;;;;18.67;93.53;95051.25;5132750;28;20440;-80
2021/09/28 01:27:27;;;;;;;17.83;13.73;;;;;;;18.70;93.25;95048.25;5113484;28;20925;-80
2021/09/28 01:29:54;;;;;;;16.87;15.10;;;;;;;18.68;93.08;95048.41;5133052;28;20436;-80
2021/09/28 01:32:21;;;;;;;16.97;15.03;;;;;;;18.71;93.09;95049.91;5132821;28;20959;-79
2021/09/28 01:34:48;;;;;;;15.30;13.70;;;;;;;18.77;92.87;95049.19;5132794;28;20898;-80
2021/09/28 01:37:15;;;;;;;14.20;12.70;;;;;;;18.81;92.88;95046.03;5096532;27;20442;-80
2021/09/28 01:39:43;;;;;;;14.93;13.37;;;;;;;18.83;92.81;95041.34;5132856;28;20446;-80
2021/09/28 01:42:10;;;;;;;16.60;14.30;;;;;;;18.79;92.94;95042.72;5132814;28;20442;-80
2021/09/28 01:44:37;;;;;;;15.73;14.20;;;;;;;18.80;92.70;95036.41;5134839;27;20455;-80
2021/09/28 01:47:04;;;;;;;15.17;13.67;;;;;;;18.83;92.19;95038.69;5136624;27;20463;-80
2021/09/28 01:49:31;;;;;;;15.30;13.70;;;;;;;18.85;92.00;95043.84;5117237;27;20466;-80
2021/09/28 01:51:58;;;;;;;15.60;12.57;;;;;;;18.84;91.21;95036.88;5136467;27;20440;-79
2021/09/28 01:54:25;;;;;;;15.43;13.50;;;;;;;18.79;91.48;95042.72;5136422;27;20494;-80
2021/09/28 01:56:53;;;;;;;15.60;13.67;;;;;;;18.79;91.68;95042.72;5136521;27;20477;-80
2021/09/28 01:59:20;;;;;;;18.13;13.10;;;;;;;18.80;91.67;95047.03;5136403;27;20445;-80
2021/09/28 02:01:47;;;;;;;17.00;13.47;;;;;;;18.80;91.62;95057.66;5136401;27;20953;-80
2021/09/28 02:04:14;;;;;;;14.97;13.47;;;;;;;18.76;91.09;95052.84;5136529;27;20447;-80
2021/09/28 02:06:41;;;;;;;14.00;12.60;;;;;;;18.76;91.29;95055.50;5136024;27;20444;-79
2021/09/28 02:09:10;;;;;;;13.27;11.97;;;;;;;18.75;91.35;95049.38;5136039;27;20945;-80
2021/09/28 02:11:38;;;;;;;12.70;11.50;;;;;;;18.73;91.11;95050.56;5136057;27;20443;-79
2021/09/28 02:14:08;;;;;;;15.30;12.20;;;;;;;18.76;91.05;95068.81;5135954;27;20515;-79
2021/09/28 02:16:35;;;;;;;13.80;12.37;;;;;;;18.72;91.03;95059.53;5135943;27;20984;-80
2021/09/28 02:19:02;;;;;;;13.80;12.40;;;;;;;18.70;91.03;95062.38;5136146;27;20535;-79
2021/09/28 02:21:29;;;;;;;12.13;10.90;;;;;;;18.66;91.09;95053.09;5136250;27;20445;-79
2021/09/28 02:23:55;;;;;;;13.10;11.87;;;;;;;18.67;91.46;95061.88;5136287;27;20460;-80
2021/09/28 02:26:22;;;;;;;13.43;12.03;;;;;;;18.67;91.32;95059.22;5135819;27;20442;-80
2021/09/28 02:28:49;;;;;;;13.17;11.80;;;;;;;18.63;90.96;95058.75;5135637;27;20458;-80
2021/09/28 02:31:18;;;;;;;12.50;11.30;;;;;;;18.60;90.97;95055.59;5135412;27;20443;-79
2021/09/28 02:33:45;;;;;;;14.03;12.53;;;;;;;18.49;91.33;95057.63;5099249;27;20486;-80
2021/09/28 02:36:12;;;;;;;12.97;11.53;;;;;;;18.48;91.49;95061.28;5135564;27;20939;-80
2021/09/28 02:38:39;;;;;;;13.93;12.30;;;;;;;18.29;93.18;95060.91;5135684;27;20444;-79
2021/09/28 02:41:06;;;;;;;19.23;14.20;;;;;;;18.24;94.13;95054.28;5135562;27;20454;-79
2021/09/28 02:43:33;;;;;;;16.43;14.23;;;;;;;18.16;95.25;95054.31;5135360;27;20449;-80
2021/09/28 02:46:00;;;;;;;15.20;13.70;;;;;;;18.17;95.45;95055.13;5098988;27;20443;-79
2021/09/28 02:48:30;;;;;;;18.73;15.47;;;;;;;17.86;96.85;95053.25;5135417;27;20443;-79
2021/09/28 02:50:57;;;;;;;16.53;15.03;;;;;;;17.92;97.29;95057.88;5135475;27;20449;-79
2021/09/28 02:53:23;;;;;;;16.80;14.70;;;;;;;18.00;97.29;95064.16;5135289;27;20439;-80
2021/09/28 02:55:50;;;;;;;16.20;14.47;;;;;;;18.05;97.18;95061.81;5134376;27;20479;-79
2021/09/28 02:58:17;;;;;;;17.97;16.27;;;;;;;18.04;97.43;95050.38;5116076;27;20438;-80
2021/09/28 03:00:44;;;;;;;19.73;16.37;;;;;;;18.11;97.92;95058.47;5134573;27;20440;-79
2021/09/28 03:03:11;;;;;;;17.57;15.83;;;;;;;18.15;97.35;95065.91;5135244;27;20446;-80
2021/09/28 03:05:40;;;;;;;18.17;15.50;;;;;;;18.19;96.89;95077.03;5135150;27;20439;-79
2021/09/28 03:08:07;;;;;;;19.47;15.53;;;;;;;18.20;96.30;95078.69;5134864;27;20430;-80
2021/09/28 03:10:34;;;;;;;16.70;15.10;;;;;;;18.23;96.49;95081.84;5135804;27;20439;-80
2021/09/28 03:13:01;;;;;;;17.50;14.63;;;;;;;18.25;96.10;95079.03;5100095;27;20805;-81
2021/09/28 03:15:28;;;;;;;17.30;15.60;;;;;;;18.28;96.28;95081.34;5099818;27;20477;-80
2021/09/28 03:17:55;;;;;;;16.50;14.80;;;;;;;18.31;96.87;95085.47;5135956;27;20435;-81
2021/09/28 03:20:21;;;;;;;17.20;15.63;;;;;;;18.35;96.87;95084.13;5135941;27;20447;-81
2021/09/28 03:22:50;;;;;;;18.60;16.80;;;;;;;18.37;96.69;95093.56;5135409;27;20451;-81
2021/09/28 03:25:17;;;;;;;17.73;15.80;;;;;;;18.36;96.16;95083.94;5135690;27;20447;-80
2021/09/28 03:27:44;;;;;;;17.90;16.10;;;;;;;18.38;96.27;95099.72;5136015;27;20468;-81
2021/09/28 03:30:12;;;;;;;15.70;13.97;;;;;;;18.36;95.20;95091.91;5136134;27;20468;-81
2021/09/28 03:32:39;;;;;;;12.17;10.97;;;;;;;18.30;93.99;95089.13;5135754;27;20481;-80
2021/09/28 03:35:10;;;;;;;12.87;11.87;;;;;;;18.22;92.96;95090.81;5135659;27;20483;-81
2021/09/28 03:37:37;;;;;;;15.80;13.50;;;;;;;18.21;93.54;95093.63;5135358;27;20438;-80
2021/09/28 03:40:08;;;;;;;13.07;11.70;;;;;;;18.15;93.47;95078.38;5135636;27;20791;-80
2021/09/28 03:42:35;;;;;;;15.20;11.83;;;;;;;18.07;93.01;95065.13;5135678;27;20438;-82
2021/09/28 03:45:02;;;;;;;15.27;13.57;;;;;;;17.81;93.95;95066.22;5135374;27;20452;-80
2021/09/28 03:47:29;;;;;;;16.53;13.83;;;;;;;17.77;94.90;95064.06;5135532;27;20530;-79
2021/09/28 03:49:56;;;;;;;16.27;13.37;;;;;;;17.83;95.64;95079.31;5135252;27;20456;-80
2021/09/28 03:52:24;;;;;;;14.80;13.20;;;;;;;17.89;96.10;95082.09;5135163;27;20769;-80
2021/09/28 03:54:51;;;;;;;19.00;13.20;;;;;;;17.93;96.75;95086.09;5134695;27;20480;-80
2021/09/28 03:57:19;;;;;;;13.83;12.50;;;;;;;17.99;96.57;95078.44;5094581;27;20444;-80
2021/09/28 03:59:47;;;;;;;18.73;13.23;;;;;;;18.01;96.12;95071.13;5131569;27;20438;-80
2021/09/28 04:02:14;;;;;;;16.73;12.40;;;;;;;17.99;94.90;95059.88;5133051;27;20443;-80
2021/09/28 04:04:41;;;;;;;12.87;11.73;;;;;;;17.99;95.28;95078.44;5133692;27;20479;-80
2021/09/28 04:07:08;;;;;;;13.50;11.03;;;;;;;17.95;94.90;95073.47;5132846;27;20445;-80
2021/09/28 04:09:37;;;;;;;12.80;11.37;;;;;;;17.93;94.84;95080.78;5134293;27;20446;-80
2021/09/28 04:12:04;;;;;;;14.37;11.80;;;;;;;17.95;94.58;95081.44;5134242;27;20423;-80
2021/09/28 04:14:49;;;;;;;11.60;10.50;;;;;;;17.98;94.79;95092.72;5097826;27;20828;-79
2021/09/28 04:17:26;;;;;;;22.37;11.57;;;;;;;17.91;94.05;95096.03;5057438;28;20461;-80
2021/09/28 04:19:58;;;;;;;12.40;11.07;;;;;;;17.84;93.17;95092.41;5090492;28;20440;-80
2021/09/28 04:22:28;;;;;;;11.93;10.77;;;;;;;17.84;92.96;95086.28;5040486;28;20489;-80
2021/09/28 04:24:57;;;;;;;18.27;10.03;;;;;;;17.82;93.17;95097.06;5089450;28;20991;-80
2021/09/28 04:30:19;;;;;;;13.67;10.90;;;;;;;17.67;93.13;95095.25;5069670;28;20429;-78
2021/09/28 04:32:48;;;;;;;10.60;9.50;;;;;;;17.61;93.02;95097.56;5036313;28;20567;-80
2021/09/28 04:35:21;;;;;;;14.57;10.50;;;;;;;17.57;93.04;95098.06;5069803;28;20476;-79
2021/09/28 04:37:49;;;;;;;12.63;11.37;;;;;;;17.56;92.89;95099.06;5039280;28;20937;-80
2021/09/28 04:40:19;;;;;;;13.40;9.43;;;;;;;17.56;93.47;95096.41;5088852;28;20475;-79
2021/09/28 04:42:46;;;;;;;15.73;11.47;;;;;;;17.53;94.34;95099.41;5089821;28;20518;-80
2021/09/28 04:45:13;;;;;;;12.27;11.07;;;;;;;17.41;94.17;95098.09;5090010;28;20451;-78
2021/09/28 04:47:41;;;;;;;12.10;10.60;;;;;;;17.41;94.57;95096.28;5102346;27;20447;-79
2021/09/28 04:50:09;;;;;;;12.77;10.93;;;;;;;17.42;93.90;95092.63;5134314;27;20437;-79
2021/09/28 04:52:37;;;;;;;13.10;10.20;;;;;;;17.40;95.12;95089.31;5134216;27;20445;-79
2021/09/28 04:55:04;;;;;;;10.60;9.50;;;;;;;17.40;95.51;95075.22;5133861;27;20492;-79
2021/09/28 04:57:31;;;;;;;12.77;10.07;;;;;;;17.38;93.18;95085.16;5134341;27;20448;-79
2021/09/28 04:59:59;;;;;;;13.40;10.60;;;;;;;17.40;93.32;95080.53;5134354;28;20438;-79
2021/09/28 05:02:26;;;;;;;11.70;10.50;;;;;;;17.42;92.75;95082.00;5134081;28;20444;-79
2021/09/28 05:04:54;;;;;;;14.00;10.83;;;;;;;17.44;93.35;95073.88;5134011;28;20442;-79
2021/09/28 05:07:21;;;;;;;13.53;11.37;;;;;;;17.46;93.32;95087.81;5133947;28;20974;-79
2021/09/28 05:09:48;;;;;;;12.97;10.13;;;;;;;17.48;93.02;95077.84;5097793;28;20429;-78
2021/09/28 05:12:15;;;;;;;12.40;10.90;;;;;;;17.46;92.93;95085.16;5133472;28;20763;-79
2021/09/28 05:14:42;;;;;;;12.17;10.20;;;;;;;17.49;92.79;95087.47;5133083;28;20482;-79
2021/09/28 05:17:09;;;;;;;15.67;13.13;;;;;;;17.24;94.86;95079.53;5132925;27;20438;-79
2021/09/28 05:19:36;;;;;;;20.33;12.50;;;;;;;17.31;95.17;95082.31;5135154;27;20810;-79
2021/09/28 05:22:05;;;;;;;17.30;12.90;;;;;;;17.41;95.65;95079.53;5137146;27;20649;-79
2021/09/28 05:24:32;;;;;;;15.43;12.57;;;;;;;17.52;95.84;95080.00;5137149;27;20446;-79
2021/09/28 05:26:59;;;;;;;16.97;13.03;;;;;;;17.44;96.20;95072.06;5136911;27;20449;-79
2021/09/28 05:29:25;;;;;;;14.87;13.37;;;;;;;17.56;96.80;95077.84;5136914;27;20507;-79
2021/09/28 05:31:52;;;;;;;18.23;13.80;;;;;;;17.68;97.12;95088.97;5136867;27;20574;-79
2021/09/28 05:34:21;;;;;;;22.03;13.87;;;;;;;17.77;97.01;95091.44;5136901;27;20443;-79
2021/09/28 05:36:48;;;;;;;17.50;13.73;;;;;;;17.86;96.78;95095.72;5136996;27;20433;-79
2021/09/28 05:39:17;;;;;;;17.10;13.00;;;;;;;17.93;96.63;95096.72;5136885;27;20445;-79
2021/09/28 05:41:44;;;;;;;16.63;14.93;;;;;;;17.89;95.64;95095.38;5136592;27;20450;-79
2021/09/28 05:44:11;;;;;;;15.50;13.50;;;;;;;17.95;95.25;95102.69;5136691;27;20978;-79
2021/09/28 05:46:38;;;;;;;16.43;12.43;;;;;;;18.01;95.32;95106.47;5136723;27;20528;-79
2021/09/28 05:49:05;;;;;;;14.87;13.37;;;;;;;18.04;95.05;95106.16;5136519;27;20513;-79
2021/09/28 05:51:34;;;;;;;18.50;15.07;;;;;;;18.09;94.18;95100.31;5117226;27;20449;-79
2021/09/28 05:54:02;;;;;;;20.07;14.67;;;;;;;18.13;94.17;95098.97;5136895;27;20530;-79
2021/09/28 05:56:30;;;;;;;18.37;14.90;;;;;;;18.09;92.06;95097.66;5136638;27;20891;-79
2021/09/28 05:58:57;;;;;;;17.53;15.63;;;;;;;18.16;91.65;95103.94;5100178;27;20432;-79
2021/09/28 06:01:24;;;;;;;16.53;14.83;;;;;;;18.13;91.24;95098.97;5136451;27;20442;-79
2021/09/28 06:03:51;;;;;;;19.43;13.73;;;;;;;18.04;90.90;95102.66;5136153;27;20839;-79
2021/09/28 06:06:18;;;;;;;20.00;14.23;;;;;;;17.96;90.46;95108.81;5136521;27;20450;-79
2021/09/28 06:08:45;;;;;;;16.37;13.40;;;;;;;17.90;89.21;95102.34;5136197;27;20950;-79
2021/09/28 06:11:12;;;;;;;13.47;12.03;;;;;;;17.89;89.70;95111.31;5100154;27;20443;-79
2021/09/28 06:13:41;;;;;;;15.13;12.13;;;;;;;17.87;90.97;95105.34;5136052;27;20948;-79
2021/09/28 06:16:08;;;;;;;17.57;12.10;;;;;;;17.83;91.20;95106.69;5135981;27;20480;-79
2021/09/28 06:18:35;;;;;;;14.40;13.00;;;;;;;17.81;91.17;95111.34;5136060;27;20437;-79
2021/09/28 06:21:01;;;;;;;16.33;12.00;;;;;;;17.81;91.80;95119.31;5136233;27;20449;-79
2021/09/28 06:23:28;;;;;;;12.23;10.93;;;;;;;17.72;91.10;95122.97;5136092;27;20437;-79
2021/09/28 06:25:55;;;;;;;14.37;11.10;;;;;;;17.67;92.35;95121.78;5136007;27;20464;-79
2021/09/28 06:28:22;;;;;;;12.27;10.97;;;;;;;17.61;92.43;95115.31;5135897;27;20802;-79
2021/09/28 06:30:50;;;;;;;11.80;10.60;;;;;;;17.44;91.63;95132.25;5098268;27;20430;-79
2021/09/28 06:33:17;;;;;;;19.80;12.00;;;;;;;17.47;92.05;95129.25;5135802;27;20480;-79
2021/09/28 06:35:44;;;;;;;14.10;10.30;;;;;;;17.29;91.42;95129.41;5135566;27;20483;-79
2021/09/28 06:38:11;;;;;;;11.40;9.70;;;;;;;17.40;93.14;95136.22;5135695;27;20442;-79
2021/09/28 06:40:39;;;;;;;13.90;10.00;;;;;;;17.42;92.72;95134.25;5135430;27;20448;-79
2021/09/28 06:43:06;;;;;;;16.93;10.77;;;;;;;17.44;92.22;95130.41;5135702;27;20441;-79
2021/09/28 06:45:33;;;;;;;18.33;10.70;;;;;;;17.42;92.76;95134.25;5135401;27;20442;-79
2021/09/28 06:48:02;;;;;;;11.40;10.30;;;;;;;17.34;92.41;95140.34;5135313;27;20442;-80
2021/09/28 06:50:29;;;;;;;13.50;10.80;;;;;;;17.44;92.18;95137.56;5135214;27;20513;-78
2021/09/28 06:52:56;;;;;;;12.80;9.93;;;;;;;17.25;93.13;95139.53;5135120;27;20942;-78
2021/09/28 06:55:23;;;;;;;12.70;10.20;;;;;;;17.30;93.14;95139.03;5099429;27;20482;-79
2021/09/28 06:57:49;;;;;;;11.60;10.40;;;;;;;17.36;94.22;95140.22;5135318;27;20441;-79
2021/09/28 07:00:16;;;;;;;11.50;10.23;;;;;;;17.50;93.42;95139.53;5135238;27;20449;-79
2021/09/28 07:02:43;;;;;;;13.80;11.20;;;;;;;17.50;93.57;95137.72;5135345;27;20809;-79
2021/09/28 07:05:14;;;;;;;13.37;11.97;;;;;;;17.55;93.86;95146.00;5135243;27;20447;-79
2021/09/28 07:07:42;;;;;;;12.83;10.63;;;;;;;17.65;93.78;95145.84;5135205;27;20442;-78
2021/09/28 07:10:10;;;;;;;11.93;10.67;;;;;;;17.81;93.42;95140.53;5135122;27;20447;-79
2021/09/28 07:12:37;;;;;;;11.70;10.50;;;;;;;17.87;93.85;95134.53;5134812;27;20514;-79
2021/09/28 07:15:05;;;;;;;21.93;13.47;;;;;;;17.68;91.70;95139.41;5115521;27;20534;-79
2021/09/28 07:17:32;;;;;;;10.90;9.80;;;;;;;17.81;91.93;95145.84;5115579;27;20434;-79
2021/09/28 07:20:01;;;;;;;14.50;10.43;;;;;;;17.99;92.83;95148.31;5134871;27;20458;-78
2021/09/28 07:22:31;;;;;;;12.33;10.30;;;;;;;18.18;92.55;95153.22;5134965;27;20439;-79
2021/09/28 07:24:58;;;;;;;13.00;10.00;;;;;;;18.07;90.79;95144.81;5115742;27;20542;-79
2021/09/28 07:27:25;;;;;;;10.87;9.77;;;;;;;18.19;90.20;95152.22;5134844;27;20448;-78
2021/09/28 07:29:52;;;;;;;11.10;10.00;;;;;;;18.19;89.74;95149.56;5134772;27;20442;-79
2021/09/28 07:32:21;;;;;;;12.10;10.47;;;;;;;17.92;88.62;95148.13;5134975;27;20479;-79
2021/09/28 07:34:48;;;;;;;13.63;9.47;;;;;;;17.90;90.24;95150.13;5134688;27;20446;-79
2021/09/28 07:37:15;;;;;;;12.07;10.67;;;;;;;17.80;88.66;95151.31;5134413;27;20563;-79
2021/09/28 07:39:45;;;;;;;11.70;10.50;;;;;;;17.62;90.56;95151.47;5134723;27;20455;-78
2021/09/28 07:42:12;;;;;;;11.40;10.20;;;;;;;17.69;90.42;95147.19;5134195;27;20453;-79
2021/09/28 07:44:39;;;;;;;9.57;8.67;;;;;;;17.82;88.19;95147.50;5098241;27;20448;-79
2021/09/28 07:47:06;;;;;;;12.77;10.27;;;;;;;17.96;88.60;95151.31;5134339;27;20441;-79
2021/09/28 07:49:33;;;;;;;10.10;9.20;;;;;;;18.24;90.20;95147.25;5134629;27;20445;-79
2021/09/28 07:52:00;;;;;;;9.63;8.73;;;;;;;18.09;88.93;95153.44;5134124;27;20457;-79
2021/09/28 07:54:26;;;;;;;10.83;9.73;;;;;;;18.21;88.82;95152.06;5134366;27;20441;-79
2021/09/28 07:56:55;;;;;;;11.10;10.10;;;;;;;18.65;86.47;95148.97;5097951;27;20480;-79
2021/09/28 07:59:22;;;;;;;12.20;8.40;;;;;;;19.01;84.19;95150.09;5134686;27;20447;-79
2021/09/28 08:01:49;;;;;;;16.00;8.53;;;;;;;19.36;82.82;95153.19;5133930;27;20531;-79
2021/09/28 08:04:19;;;;;;;13.00;9.13;;;;;;;19.33;82.70;95156.22;5134188;27;20449;-79
2021/09/28 08:06:46;;;;;;;12.33;7.63;;;;;;;19.63;82.00;95155.34;5134153;27;20500;-79
2021/09/28 08:09:13;;;;;;;10.60;9.20;;;;;;;20.06;80.08;95155.63;5133823;27;20985;-78
2021/09/28 08:11:40;;;;;;;9.40;8.17;;;;;;;20.46;77.82;95161.56;5134105;27;20914;-78
2021/09/28 08:14:09;;;;;;;10.43;8.67;;;;;;;20.38;75.32;95160.63;5133639;27;20451;-79
2021/09/28 08:16:36;;;;;;;11.03;8.97;;;;;;;20.77;75.11;95162.19;5133560;27;20490;-78
2021/09/28 08:19:03;;;;;;;8.33;7.63;;;;;;;21.01;74.36;95159.19;5133579;27;20999;-79
2021/09/28 08:21:30;;;;;;;11.33;7.60;;;;;;;21.14;72.45;95155.03;5133495;27;20930;-79
2021/09/28 08:23:57;;;;;;;10.97;8.20;;;;;;;21.20;71.79;95152.44;5133502;27;20434;-79
2021/09/28 08:29:11;;;;;;;8.53;7.60;;;;;;;21.18;73.13;95154.47;5133697;27;20434;-79
2021/09/28 08:31:39;;;;;;;9.67;7.50;;;;;;;21.35;71.69;95160.41;5133174;27;20471;-79
2021/09/28 08:34:07;;;;;;;9.40;7.60;;;;;;;21.51;70.97;95160.19;5133777;27;20457;-78
2021/09/28 08:36:34;;;;;;;9.47;8.40;;;;;;;21.08;71.76;95161.13;5133266;27;21057;-79
2021/09/28 08:39:02;;;;;;;8.70;7.97;;;;;;;21.09;71.11;95157.44;5133255;27;20440;-79
2021/09/28 08:41:29;;;;;;;9.03;8.13;;;;;;;21.33;71.54;95159.78;5133448;27;20443;-79
2021/09/28 08:43:56;;;;;;;8.77;7.77;;;;;;;21.56;71.09;95152.41;5133204;27;20462;-79
2021/09/28 08:46:25;;;;;;;10.27;9.20;;;;;;;21.72;70.28;95153.19;5097248;27;20438;-79
2021/09/28 08:48:52;;;;;;;11.13;7.83;;;;;;;21.78;69.13;95157.75;5133581;27;20447;-79
2021/09/28 08:51:19;;;;;;;12.10;8.27;;;;;;;21.92;68.16;95159.50;5133569;27;20435;-79
2021/09/28 08:53:49;;;;;;;11.60;8.60;;;;;;;22.04;68.68;95157.19;5132628;27;20489;-79
2021/09/28 08:56:17;;;;;;;12.63;8.40;;;;;;;22.06;67.06;95153.28;5132992;27;20486;-79
2021/09/28 08:58:55;;;;;;;9.17;7.33;;;;;;;21.80;67.21;95155.72;5133154;27;20926;-79
2021/09/28 09:01:22;;;;;;;15.80;7.90;;;;;;;21.86;68.43;95162.97;5132911;27;20939;-79
2021/09/28 09:03:50;;;;;;;8.50;7.70;;;;;;;21.87;68.47;95153.91;5133371;27;20449;-79
2021/09/28 09:06:18;;;;;;;9.40;8.50;;;;;;;21.92;67.92;95151.50;5133070;27;20445;-79
2021/09/28 09:08:49;;;;;;;9.80;8.47;;;;;;;21.89;68.53;95146.53;5133104;27;20447;-79
2021/09/28 09:11:18;;;;;;;10.13;8.57;;;;;;;21.84;67.69;95151.63;5097757;28;20996;-79
2021/09/28 09:13:50;;;;;;;10.30;8.90;;;;;;;21.80;69.90;95145.03;5097179;28;20455;-79
2021/09/28 09:16:19;;;;;;;12.13;8.93;;;;;;;21.73;67.91;95154.84;5132833;27;20562;-79
2021/09/28 09:18:48;;;;;;;10.13;9.10;;;;;;;21.76;70.08;95149.94;5132978;27;20955;-78
2021/09/28 09:21:16;;;;;;;10.20;9.27;;;;;;;21.76;68.52;95141.94;5132855;27;20471;-79
2021/09/28 09:23:44;;;;;;;14.67;10.20;;;;;;;21.82;68.73;95143.81;5132976;27;20439;-79
2021/09/28 09:26:15;;;;;;;12.00;9.90;;;;;;;21.72;69.17;95139.84;5132954;28;20444;-79
2021/09/28 09:28:45;;;;;;;14.10;7.90;;;;;;;21.81;67.17;95152.84;5133066;27;20522;-79
2021/09/28 09:31:29;;;;;;;9.90;9.00;;;;;;;22.06;68.30;95142.59;5132934;27;20440;-79
2021/09/28 09:34:05;;;;;;;11.43;9.77;;;;;;;22.23;67.68;95145.78;5132814;27;20457;-79
2021/09/28 09:36:34;;;;;;;9.50;8.40;;;;;;;22.47;67.98;95141.84;5096565;28;20487;-79
2021/09/28 09:39:03;;;;;;;8.83;8.03;;;;;;;22.64;66.42;95145.03;5133019;27;20451;-80
2021/09/28 09:41:32;;;;;;;15.63;8.17;;;;;;;22.63;66.28;95141.53;5132719;27;20446;-79
2021/09/28 09:44:04;;;;;;;9.63;8.63;;;;;;;22.76;65.56;95146.09;5096930;28;20542;-79
2021/09/28 09:46:43;;;;;;;8.53;7.77;;;;;;;22.82;65.44;95146.16;5132503;27;20443;-79
2021/09/28 09:49:10;;;;;;;9.50;8.23;;;;;;;22.74;64.49;95130.25;5132583;27;20452;-78
2021/09/28 09:51:43;;;;;;;12.63;8.30;;;;;;;22.73;65.28;95128.59;5132734;27;20940;-79
2021/09/28 09:54:11;;;;;;;9.80;8.90;;;;;;;22.64;66.27;95121.78;5133352;27;20801;-79
2021/09/28 09:56:43;;;;;;;16.37;8.37;;;;;;;22.81;66.02;95133.78;5132578;27;20992;-79
2021/09/28 09:59:11;;;;;;;18.17;8.23;;;;;;;22.72;65.57;95126.94;5132561;27;20453;-80
2021/09/28 10:01:38;;;;;;;9.13;8.33;;;;;;;22.80;64.77;95131.28;5132542;27;20435;-79
2021/09/28 10:04:06;;;;;;;10.43;9.40;;;;;;;22.94;65.12;95134.91;5096761;28;20439;-79
2021/09/28 10:06:33;;;;;;;11.57;8.33;;;;;;;22.95;62.32;95133.88;5136010;27;20474;-79
2021/09/28 10:09:02;;;;;;;9.07;8.20;;;;;;;22.99;64.69;95119.06;5136708;27;20450;-79
2021/09/28 10:11:35;;;;;;;11.30;9.00;;;;;;;22.95;62.56;95131.19;5136334;27;20529;-79
2021/09/28 10:14:02;;;;;;;8.83;7.67;;;;;;;22.91;65.67;95136.13;5100048;27;20872;-79
2021/09/28 10:16:34;;;;;;;12.50;8.90;;;;;;;22.87;65.09;95129.53;5136127;27;20992;-79
2021/09/28 10:19:04;;;;;;;11.97;8.90;;;;;;;22.76;66.72;95135.41;5136181;27;20455;-78
2021/09/28 10:21:42;;;;;;;13.70;9.97;;;;;;;22.72;66.45;95129.63;5136724;27;20442;-79
2021/09/28 10:24:32;;;;;;;11.53;9.43;;;;;;;22.70;68.37;95130.84;5135821;27;20878;-78
2021/09/28 10:27:27;;;;;;;12.50;8.80;;;;;;;22.74;68.92;95132.09;5100377;27;20991;-78
2021/09/28 10:29:53;;;;;;;8.90;8.00;;;;;;;22.78;68.14;95126.13;5135783;27;20442;-78
2021/09/28 10:32:46;;;;;;;11.60;9.30;;;;;;;22.73;68.23;95125.09;5135774;27;20840;-78
2021/09/28 10:35:17;;;;;;;13.20;8.83;;;;;;;22.64;68.42;95119.09;5135808;27;20463;-79
2021/09/28 10:37:55;;;;;;;9.90;9.00;;;;;;;22.69;67.50;95127.34;5135843;27;20931;-78
2021/09/28 10:40:51;;;;;;;10.10;8.70;;;;;;;22.69;66.98;95113.16;5135960;27;20436;-79
2021/09/28 10:43:32;;;;;;;10.30;8.17;;;;;;;22.66;68.02;95119.72;5135845;27;20525;-78
2021/09/28 10:46:03;;;;;;;10.27;9.27;;;;;;;22.66;67.85;95113.53;5135541;27;20453;-78
2021/09/28 10:48:37;;;;;;;14.60;8.83;;;;;;;22.70;67.83;95120.97;5135768;27;20501;-78
2021/09/28 10:51:23;;;;;;;9.60;8.80;;;;;;;22.80;67.42;95110.72;5135504;27;20448;-78
2021/09/28 10:53:53;;;;;;;9.37;8.27;;;;;;;23.03;67.11;95112.28;5135273;27;20452;-78
2021/09/28 10:56:22;;;;;;;14.43;9.73;;;;;;;23.12;65.53;95109.19;5135538;27;21297;-79
2021/09/28 10:59:00;;;;;;;9.60;8.70;;;;;;;23.32;65.59;95106.56;5135354;27;20447;-78
2021/09/28 11:01:29;;;;;;;10.33;9.33;;;;;;;23.43;64.53;95108.66;5135298;27;20463;-78
2021/09/28 11:04:01;;;;;;;10.33;9.30;;;;;;;23.56;64.76;95113.25;5135080;27;20447;-78
2021/09/28 11:06:48;;;;;;;13.93;8.90;;;;;;;23.58;64.08;95107.69;5135119;27;20455;-78
2021/09/28 11:09:17;;;;;;;13.20;8.97;;;;;;;23.56;64.25;95109.72;5135427;27;20453;-78
2021/09/28 11:11:50;;;;;;;9.40;8.60;;;;;;;23.53;64.04;95102.06;5135459;27;20447;-78
2021/09/28 11:14:17;;;;;;;12.53;9.47;;;;;;;23.52;63.66;95108.47;5134816;27;20493;-78
2021/09/28 11:16:50;;;;;;;16.37;9.93;;;;;;;23.51;64.98;95106.81;5134780;27;20487;-79
2021/09/28 11:19:17;;;;;;;9.40;8.50;;;;;;;23.48;64.13;95103.53;5098736;27;20440;-78
2021/09/28 11:21:46;;;;;;;10.33;9.33;;;;;;;23.46;64.66;95104.75;5134782;27;20493;-78
2021/09/28 11:24:14;;;;;;;11.83;9.83;;;;;;;23.40;64.45;95095.66;5134992;27;20813;-78
2021/09/28 11:26:43;;;;;;;11.63;8.60;;;;;;;23.38;65.55;95099.56;5134890;27;20453;-78
2021/09/28 11:29:14;;;;;;;10.23;8.93;;;;;;;23.14;65.07;95095.63;5134902;27;20443;-78
2021/09/28 11:31:44;;;;;;;17.40;10.60;;;;;;;23.08;65.47;95101.78;5134694;27;20444;-79
2021/09/28 11:34:11;;;;;;;13.40;10.63;;;;;;;22.96;65.53;95092.69;5134505;27;20443;-79